createdAt,value
2022-12-28T00:00:06.558Z,8.90
2022-12-28T00:02:45.276Z,8.91
2022-12-28T00:05:18.415Z,9.01
2022-12-28T00:07:51.335Z,8.86
2022-12-28T00:11:08.692Z,8.87
2022-12-28T00:13:17.496Z,8.97
2022-12-28T00:15:51.932Z,9.06
2022-12-28T00:18:25.024Z,8.99
2022-12-28T00:20:58.254Z,8.92
2022-12-28T00:23:32.345Z,8.90
2022-12-28T00:26:09.165Z,8.81
2022-12-28T00:28:42.658Z,8.86
2022-12-28T00:31:17.770Z,8.92
2022-12-28T00:33:52.144Z,8.97
2022-12-28T00:36:25.159Z,8.93
2022-12-28T00:39:18.788Z,8.92
2022-12-28T00:41:51.882Z,8.99
2022-12-28T00:44:25.147Z,8.97
2022-12-28T00:46:59.200Z,8.99
2022-12-28T00:49:32.120Z,9.10
2022-12-28T00:52:06.927Z,8.93
2022-12-28T00:54:39.689Z,8.88
2022-12-28T00:57:12.537Z,9.05
2022-12-28T00:59:45.590Z,8.97
2022-12-28T01:02:20.148Z,9.09
2022-12-28T01:04:55.108Z,8.97
2022-12-28T01:07:28.400Z,9.14
2022-12-28T01:10:01.831Z,9.03
2022-12-28T01:12:38.247Z,9.05
2022-12-28T01:15:13.397Z,9.11
2022-12-28T01:17:48.822Z,9.17
2022-12-28T01:20:21.619Z,9.07
2022-12-28T01:22:54.716Z,9.19
2022-12-28T01:25:28.660Z,9.10
2022-12-28T01:28:01.973Z,9.05
2022-12-28T01:30:34.835Z,9.19
2022-12-28T01:33:12.997Z,9.32
2022-12-28T01:35:46.024Z,9.21
2022-12-28T01:38:18.959Z,9.28
2022-12-28T01:40:51.684Z,9.17
2022-12-28T01:43:39.015Z,9.31
2022-12-28T01:46:15.477Z,9.28
2022-12-28T01:48:57.788Z,9.19
2022-12-28T01:51:35.916Z,9.13
2022-12-28T01:54:09.066Z,9.18
2022-12-28T01:56:42.019Z,9.32
2022-12-28T01:59:15.498Z,9.29
2022-12-28T02:01:48.975Z,9.30
2022-12-28T02:04:23.847Z,9.35
2022-12-28T02:06:57.965Z,9.26
2022-12-28T02:09:34.406Z,9.26
2022-12-28T02:12:10.818Z,9.28
2022-12-28T02:14:45.529Z,9.31
2022-12-28T02:17:18.660Z,9.27
2022-12-28T02:19:52.963Z,9.34
2022-12-28T02:22:56.505Z,9.41
2022-12-28T02:26:09.191Z,9.46
2022-12-28T02:29:32.557Z,9.54
2022-12-28T02:32:17.329Z,9.50
2022-12-28T02:34:58.372Z,9.49
2022-12-28T02:37:37.165Z,9.56
2022-12-28T02:40:15.073Z,9.51
2022-12-28T02:42:49.809Z,9.61
2022-12-28T02:45:52.447Z,9.58
2022-12-28T02:48:57.047Z,9.45
2022-12-28T02:51:54.610Z,9.35
2022-12-28T02:55:00.895Z,9.50
2022-12-28T02:57:56.283Z,9.55
2022-12-28T03:00:38.421Z,9.53
2022-12-28T03:03:22.813Z,9.54
2022-12-28T03:06:30.554Z,9.55
2022-12-28T03:09:14.921Z,9.69
2022-12-28T03:11:54.578Z,9.66
2022-12-28T03:14:33.875Z,9.80
2022-12-28T03:17:27.336Z,9.62
2022-12-28T03:20:20.080Z,9.64
2022-12-28T03:23:15.858Z,9.49
2022-12-28T03:26:07.791Z,9.61
2022-12-28T03:29:05.678Z,9.72
2022-12-28T03:31:43.944Z,9.82
2022-12-28T03:34:20.247Z,9.85
2022-12-28T03:37:00.934Z,9.96
2022-12-28T03:39:42.720Z,9.84
2022-12-28T03:42:36.513Z,9.95
2022-12-28T03:45:44.244Z,9.80
2022-12-28T03:48:13.269Z,9.87
2022-12-28T03:50:49.635Z,9.82
2022-12-28T03:53:31.502Z,9.78
2022-12-28T03:56:11.470Z,9.94
2022-12-28T03:58:45.756Z,9.95
2022-12-28T04:01:20.818Z,10.07
2022-12-28T04:03:54.423Z,10.07
2022-12-28T04:06:27.216Z,9.96
2022-12-28T04:09:01.014Z,10.06
2022-12-28T04:11:38.302Z,10.03
2022-12-28T04:14:11.516Z,10.06
2022-12-28T04:16:48.556Z,10.18
2022-12-28T04:19:23.260Z,9.94
2022-12-28T04:21:55.899Z,10.09
2022-12-28T04:24:29.320Z,10.06
2022-12-28T04:27:03.522Z,10.10
2022-12-28T04:29:36.502Z,10.12
2022-12-28T04:32:15.924Z,10.17
2022-12-28T04:34:49.182Z,10.15
2022-12-28T04:37:24.390Z,10.13
2022-12-28T04:39:57.626Z,10.15
2022-12-28T04:42:32.709Z,10.18
2022-12-28T04:45:06.448Z,10.15
2022-12-28T04:47:39.179Z,10.08
2022-12-28T04:50:11.940Z,10.15
2022-12-28T04:52:44.698Z,10.13
2022-12-28T04:55:32.874Z,10.20
2022-12-28T04:58:07.795Z,10.15
2022-12-28T05:00:40.711Z,10.23
2022-12-28T05:03:19.547Z,10.21
2022-12-28T05:05:52.520Z,10.27
2022-12-28T05:08:25.544Z,10.28
2022-12-28T05:11:01.172Z,10.32
2022-12-28T05:13:36.326Z,10.32
2022-12-28T05:16:11.345Z,10.29
2022-12-28T05:18:44.477Z,10.32
2022-12-28T05:21:19.395Z,10.29
2022-12-28T05:23:53.422Z,10.43
2022-12-28T05:26:28.746Z,10.31
2022-12-28T05:29:03.355Z,10.35
2022-12-28T05:31:36.674Z,10.43
2022-12-28T05:34:09.604Z,10.33
2022-12-28T05:36:42.884Z,10.45
2022-12-28T05:39:15.878Z,10.38
2022-12-28T05:41:48.682Z,10.45
2022-12-28T05:44:22.993Z,10.32
2022-12-28T05:46:56.165Z,10.32
2022-12-28T05:49:31.607Z,10.32
2022-12-28T05:52:06.066Z,10.35
2022-12-28T05:54:39.166Z,10.36
2022-12-28T05:57:11.833Z,10.42
2022-12-28T05:59:46.025Z,10.50
2022-12-28T06:02:24.417Z,10.31
2022-12-28T06:04:57.906Z,10.52
2022-12-28T06:07:30.656Z,10.49
2022-12-28T06:10:03.627Z,10.44
2022-12-28T06:12:36.622Z,10.60
2022-12-28T06:15:11.280Z,10.59
2022-12-28T06:17:44.218Z,10.61
2022-12-28T06:20:16.845Z,10.56
2022-12-28T06:22:49.630Z,10.54
2022-12-28T06:25:22.604Z,10.61
2022-12-28T06:27:55.180Z,10.52
2022-12-28T06:30:32.323Z,10.52
2022-12-28T06:33:08.910Z,10.58
2022-12-28T06:35:42.187Z,10.58
2022-12-28T06:38:15.042Z,10.56
2022-12-28T06:41:12.453Z,10.52
2022-12-28T06:43:42.414Z,10.61
2022-12-28T06:46:20.187Z,10.60
2022-12-28T06:48:53.499Z,10.56
2022-12-28T06:51:27.946Z,10.62
2022-12-28T06:54:01.233Z,10.64
2022-12-28T06:56:35.770Z,10.66
2022-12-28T06:59:08.853Z,10.69
2022-12-28T07:01:44.678Z,10.71
2022-12-28T07:04:18.195Z,10.69
2022-12-28T07:06:55.104Z,10.77
2022-12-28T07:09:28.181Z,10.81
2022-12-28T07:12:00.789Z,10.74
2022-12-28T07:14:33.805Z,10.77
2022-12-28T07:17:07.812Z,10.68
2022-12-28T07:19:40.510Z,10.69
2022-12-28T07:22:13.238Z,10.74
2022-12-28T07:24:46.180Z,10.75
2022-12-28T07:27:19.032Z,10.72
2022-12-28T07:29:51.959Z,10.66
2022-12-28T07:32:26.381Z,10.82
2022-12-28T07:34:59.282Z,10.84
2022-12-28T07:37:32.414Z,10.82
2022-12-28T07:40:07.417Z,10.86
2022-12-28T07:42:40.221Z,10.89
2022-12-28T07:45:13.203Z,10.88
2022-12-28T07:47:47.627Z,10.88
2022-12-28T07:50:20.716Z,10.83
2022-12-28T07:52:53.599Z,10.95
2022-12-28T07:55:30.222Z,10.88
2022-12-28T07:58:03.174Z,10.82
2022-12-28T08:00:35.911Z,10.86
2022-12-28T08:03:10.265Z,10.72
2022-12-28T08:05:43.007Z,10.85
2022-12-28T08:08:15.780Z,10.79
2022-12-28T08:10:48.619Z,10.88
2022-12-28T08:13:21.654Z,10.90
2022-12-28T08:15:55.572Z,10.90
2022-12-28T08:18:30.599Z,10.87
2022-12-28T08:21:05.416Z,10.93
2022-12-28T08:23:40.453Z,10.86
2022-12-28T08:26:15.431Z,10.82
2022-12-28T08:28:49.651Z,10.75
2022-12-28T08:31:24.237Z,10.79
2022-12-28T08:33:59.771Z,10.78
2022-12-28T08:36:33.051Z,10.94
2022-12-28T08:39:06.449Z,10.94
2022-12-28T08:41:39.472Z,10.94
2022-12-28T08:44:12.311Z,10.99
2022-12-28T08:46:45.262Z,11.02
2022-12-28T08:49:19.404Z,11.02
2022-12-28T08:51:52.213Z,10.95
2022-12-28T08:54:25.318Z,10.94
2022-12-28T08:56:58.024Z,11.00
2022-12-28T08:59:30.888Z,11.05
2022-12-28T09:02:03.866Z,11.03
2022-12-28T09:04:38.214Z,11.05
2022-12-28T09:07:11.101Z,11.05
2022-12-28T09:09:43.858Z,11.10
2022-12-28T09:12:16.662Z,11.16
2022-12-28T09:14:49.434Z,11.12
2022-12-28T09:17:22.633Z,11.10
2022-12-28T09:19:56.787Z,11.18
2022-12-28T09:22:32.281Z,11.15
2022-12-28T09:25:05.247Z,11.21
2022-12-28T09:27:37.960Z,11.22
2022-12-28T09:30:11.536Z,11.19
2022-12-28T09:32:44.289Z,11.15
2022-12-28T09:35:18.402Z,11.19
2022-12-28T09:37:51.837Z,11.16
2022-12-28T09:40:24.650Z,11.20
2022-12-28T09:42:57.442Z,11.25
2022-12-28T09:45:30.711Z,11.30
2022-12-28T09:48:09.351Z,11.21
2022-12-28T09:50:45.192Z,11.23
2022-12-28T09:53:30.371Z,11.11
2022-12-28T09:56:06.342Z,11.10
2022-12-28T09:58:47.625Z,11.16
2022-12-28T10:01:22.961Z,11.24
2022-12-28T10:04:01.646Z,11.24
2022-12-28T10:06:36.795Z,11.30
2022-12-28T10:09:15.008Z,11.25
2022-12-28T10:11:50.660Z,11.25
2022-12-28T10:14:28.201Z,11.28
2022-12-28T10:17:01.146Z,11.36
2022-12-28T10:19:34.298Z,11.20
2022-12-28T10:22:12.951Z,11.22
2022-12-28T10:24:46.759Z,11.29
2022-12-28T10:27:23.474Z,11.40
2022-12-28T10:29:56.674Z,11.41
2022-12-28T10:32:48.634Z,11.30
2022-12-28T10:35:27.585Z,11.21
2022-12-28T10:38:04.903Z,11.20
2022-12-28T10:40:39.871Z,11.24
2022-12-28T10:43:20.626Z,11.32
2022-12-28T10:45:53.648Z,11.33
2022-12-28T10:48:30.450Z,11.38
2022-12-28T10:51:13.012Z,11.39
2022-12-28T10:53:49.520Z,11.36
2022-12-28T10:56:25.580Z,11.33
2022-12-28T10:59:20.151Z,11.26
2022-12-28T11:01:53.048Z,11.23
2022-12-28T11:04:27.095Z,11.39
2022-12-28T11:07:02.761Z,11.20
2022-12-28T11:09:37.374Z,11.09
2022-12-28T11:12:19.124Z,11.19
2022-12-28T11:14:52.738Z,11.23
2022-12-28T11:17:27.472Z,11.39
2022-12-28T11:20:17.171Z,11.25
2022-12-28T11:22:51.272Z,11.20
2022-12-28T11:25:31.491Z,11.27
2022-12-28T11:28:08.016Z,11.37
2022-12-28T11:30:40.983Z,11.32
2022-12-28T11:33:27.907Z,11.22
2022-12-28T11:36:06.872Z,11.31
2022-12-28T11:38:44.829Z,11.34
2022-12-28T11:42:02.844Z,11.33
2022-12-28T11:44:54.002Z,11.39
2022-12-28T11:47:33.426Z,11.38
2022-12-28T11:50:50.722Z,11.31
2022-12-28T11:53:44.650Z,11.22
2022-12-28T11:56:19.886Z,11.30
2022-12-28T11:59:22.586Z,11.31
2022-12-28T12:01:57.537Z,11.34
2022-12-28T12:04:37.043Z,11.33
2022-12-28T12:07:45.801Z,11.30
2022-12-28T12:10:33.948Z,11.24
2022-12-28T12:13:44.255Z,11.31
2022-12-28T12:16:25.491Z,11.30
2022-12-28T12:19:00.181Z,11.42
2022-12-28T12:21:37.316Z,11.20
2022-12-28T12:24:26.627Z,11.25
2022-12-28T12:27:08.657Z,11.25
2022-12-28T12:29:51.812Z,11.38
2022-12-28T12:32:29.994Z,11.32
2022-12-28T12:35:06.342Z,11.31
2022-12-28T12:37:47.414Z,11.30
2022-12-28T12:40:56.749Z,11.43
2022-12-28T12:43:44.090Z,11.43
2022-12-28T12:46:44.776Z,11.41
2022-12-28T12:49:38.047Z,11.44
2022-12-28T12:52:28.201Z,11.24
2022-12-28T12:55:17.244Z,11.39
2022-12-28T12:57:59.157Z,11.48
2022-12-28T13:00:47.094Z,11.33
2022-12-28T13:03:36.347Z,11.40
2022-12-28T13:06:11.546Z,11.38
2022-12-28T13:08:49.501Z,11.47
2022-12-28T13:11:23.677Z,11.44
2022-12-28T13:13:57.160Z,11.45
2022-12-28T13:16:32.660Z,11.53
2022-12-28T13:19:08.532Z,11.47
2022-12-28T13:21:43.801Z,11.44
2022-12-28T13:24:24.788Z,11.50
2022-12-28T13:26:59.983Z,11.43
2022-12-28T13:29:35.888Z,11.41
2022-12-28T13:32:30.338Z,11.41
2022-12-28T13:35:19.406Z,11.50
2022-12-28T13:38:03.560Z,11.57
2022-12-28T13:40:39.170Z,11.54
2022-12-28T13:43:44.957Z,11.48
2022-12-28T13:46:20.306Z,11.48
2022-12-28T13:48:57.881Z,11.40
2022-12-28T13:51:32.499Z,11.59
2022-12-28T13:54:06.301Z,11.47
2022-12-28T13:56:42.764Z,11.37
2022-12-28T13:59:19.753Z,11.54
2022-12-28T14:01:53.642Z,11.53
2022-12-28T14:04:52.179Z,11.53
2022-12-28T14:07:25.643Z,11.53
2022-12-28T14:10:00.256Z,11.51
2022-12-28T14:12:33.475Z,11.49
2022-12-28T14:15:08.742Z,11.60
2022-12-28T14:17:42.548Z,11.60
2022-12-28T14:20:15.712Z,11.66
2022-12-28T14:22:50.162Z,11.57
2022-12-28T14:25:23.827Z,11.48
2022-12-28T14:28:09.365Z,11.54
2022-12-28T14:31:12.112Z,11.47
2022-12-28T14:34:39.489Z,11.42
2022-12-28T14:37:26.420Z,11.38
2022-12-28T14:40:06.347Z,11.39
2022-12-28T14:42:39.643Z,11.42
2022-12-28T14:45:24.172Z,11.35
2022-12-28T14:47:57.475Z,11.41
2022-12-28T14:50:32.703Z,11.54
2022-12-28T14:53:16.854Z,11.38
2022-12-28T14:56:01.076Z,11.41
2022-12-28T14:58:44.129Z,11.27
2022-12-28T15:01:21.852Z,11.24
2022-12-28T15:03:57.237Z,11.30
2022-12-28T15:06:33.190Z,11.39
2022-12-28T15:09:08.527Z,11.33
2022-12-28T15:11:43.049Z,11.46
2022-12-28T15:14:16.002Z,11.51
2022-12-28T15:16:50.541Z,11.41
2022-12-28T15:19:23.575Z,11.45
2022-12-28T15:21:56.801Z,11.34
2022-12-28T15:24:33.892Z,11.35
2022-12-28T15:27:09.111Z,11.32
2022-12-28T15:32:35.251Z,11.34
2022-12-28T15:35:09.116Z,11.31
2022-12-28T15:37:42.454Z,11.30
2022-12-28T15:40:15.607Z,11.26
2022-12-28T15:42:50.264Z,11.21
2022-12-28T15:45:25.286Z,11.11
2022-12-28T15:47:58.527Z,11.22
2022-12-28T15:50:32.238Z,11.27
2022-12-28T15:53:08.454Z,11.23
2022-12-28T15:55:41.997Z,11.29
2022-12-28T15:58:16.561Z,11.18
2022-12-28T16:00:49.944Z,11.35
2022-12-28T16:03:26.483Z,11.21
2022-12-28T16:06:00.114Z,11.26
2022-12-28T16:08:33.030Z,11.23
2022-12-28T16:11:08.988Z,11.17
2022-12-28T16:13:52.091Z,11.20
2022-12-28T16:16:25.232Z,11.21
2022-12-28T16:18:59.431Z,11.13
2022-12-28T16:21:32.483Z,11.18
2022-12-28T16:24:06.282Z,11.30
2022-12-28T16:26:41.463Z,11.23
2022-12-28T16:29:28.997Z,11.10
2022-12-28T16:32:05.737Z,11.29
2022-12-28T16:34:38.925Z,11.02
2022-12-28T16:37:11.770Z,11.29
2022-12-28T16:39:45.155Z,11.17
2022-12-28T16:42:18.113Z,11.15
2022-12-28T16:44:52.286Z,11.29
2022-12-28T16:47:25.081Z,11.23
2022-12-28T16:49:57.854Z,11.10
2022-12-28T16:52:30.646Z,11.18
2022-12-28T16:55:03.487Z,11.18
2022-12-28T16:57:38.886Z,11.02
2022-12-28T17:00:14.116Z,10.99
2022-12-28T17:02:47.653Z,11.08
2022-12-28T17:05:25.994Z,11.12
2022-12-28T17:07:58.892Z,11.12
2022-12-28T17:10:31.812Z,11.21
2022-12-28T17:13:04.733Z,11.20
2022-12-28T17:15:40.946Z,11.23
2022-12-28T17:18:14.602Z,11.16
2022-12-28T17:20:48.113Z,11.20
2022-12-28T17:23:20.950Z,11.29
2022-12-28T17:25:55.779Z,11.26
2022-12-28T17:28:29.602Z,11.34
2022-12-28T17:31:12.536Z,11.15
2022-12-28T17:33:48.188Z,11.25
2022-12-28T17:36:21.535Z,11.14
2022-12-28T17:38:54.641Z,11.13
2022-12-28T17:41:28.565Z,11.15
2022-12-28T17:44:01.808Z,11.25
2022-12-28T17:46:40.821Z,11.26
2022-12-28T17:49:17.470Z,11.30
2022-12-28T17:51:50.427Z,11.28
2022-12-28T17:54:23.927Z,11.17
2022-12-28T17:56:59.463Z,11.35
2022-12-28T17:59:34.827Z,11.30
2022-12-28T18:02:12.901Z,11.23
2022-12-28T18:04:46.064Z,11.49
2022-12-28T18:07:19.262Z,11.52
2022-12-28T18:09:52.782Z,11.46
2022-12-28T18:12:25.758Z,11.50
2022-12-28T18:14:58.633Z,11.46
2022-12-28T18:17:35.288Z,11.41
2022-12-28T18:20:10.430Z,11.48
2022-12-28T18:22:44.764Z,11.46
2022-12-28T18:25:18.007Z,11.43
2022-12-28T18:27:50.834Z,11.48
2022-12-28T18:30:29.216Z,11.44
2022-12-28T18:33:03.758Z,11.54
2022-12-28T18:35:36.772Z,11.63
2022-12-28T18:38:09.638Z,11.56
2022-12-28T18:40:42.464Z,11.61
2022-12-28T18:43:17.427Z,11.56
2022-12-28T18:45:53.990Z,11.57
2022-12-28T18:48:29.188Z,11.57
2022-12-28T18:51:04.154Z,11.68
2022-12-28T18:53:37.331Z,11.70
2022-12-28T18:56:14.414Z,11.74
2022-12-28T18:58:51.910Z,11.76
2022-12-28T19:04:21.590Z,11.64
2022-12-28T19:06:54.611Z,11.67
2022-12-28T19:09:27.421Z,11.69
2022-12-28T19:12:00.305Z,11.58
2022-12-28T19:14:33.027Z,11.57
2022-12-28T19:17:05.842Z,11.63
2022-12-28T19:19:40.354Z,11.56
2022-12-28T19:22:14.567Z,11.70
2022-12-28T19:24:47.804Z,11.43
2022-12-28T19:27:20.824Z,11.50
2022-12-28T19:29:53.674Z,11.49
2022-12-28T19:32:26.579Z,11.52
2022-12-28T19:35:00.830Z,11.62
2022-12-28T19:37:34.182Z,11.63
2022-12-28T19:40:10.383Z,11.63
2022-12-28T19:42:43.687Z,11.66
2022-12-28T19:45:18.185Z,11.58
2022-12-28T19:47:51.068Z,11.65
2022-12-28T19:50:25.451Z,11.69
2022-12-28T19:52:58.220Z,11.70
2022-12-28T19:55:31.150Z,11.85
2022-12-28T19:58:03.781Z,12.02
2022-12-28T20:00:36.639Z,11.72
2022-12-28T20:03:11.523Z,11.74
2022-12-28T20:05:45.680Z,11.79
2022-12-28T20:08:18.496Z,11.84
2022-12-28T20:10:56.078Z,11.80
2022-12-28T20:13:28.783Z,11.89
2022-12-28T20:16:01.943Z,11.83
2022-12-28T20:18:34.825Z,11.81
2022-12-28T20:21:19.181Z,11.70
2022-12-28T20:23:53.931Z,11.91
2022-12-28T20:26:28.279Z,11.80
2022-12-28T20:29:02.554Z,11.70
2022-12-28T20:31:35.436Z,11.68
2022-12-28T20:34:08.268Z,11.65
2022-12-28T20:36:42.375Z,11.78
2022-12-28T20:39:15.239Z,11.73
2022-12-28T20:42:05.409Z,11.64
2022-12-28T20:44:38.186Z,11.71
2022-12-28T20:47:11.070Z,11.79
2022-12-28T20:49:43.786Z,11.76
2022-12-28T20:52:20.427Z,11.69
2022-12-28T20:54:53.183Z,11.75
2022-12-28T20:57:26.142Z,11.85
2022-12-28T20:59:59.686Z,11.88
2022-12-28T21:02:32.445Z,11.86
2022-12-28T21:05:06.128Z,11.84
2022-12-28T21:07:40.598Z,11.88
2022-12-28T21:10:13.480Z,12.02
2022-12-28T21:12:46.400Z,11.81
2022-12-28T21:15:19.317Z,11.80
2022-12-28T21:17:52.273Z,11.80
2022-12-28T21:20:31.635Z,12.04
2022-12-28T21:23:09.693Z,11.93
2022-12-28T21:25:42.414Z,11.91
2022-12-28T21:28:16.553Z,11.94
2022-12-28T21:30:54.477Z,12.13
2022-12-28T21:33:27.243Z,12.05
2022-12-28T21:36:04.801Z,12.07
2022-12-28T21:38:40.670Z,12.05
2022-12-28T21:41:15.323Z,12.08
2022-12-28T21:43:48.106Z,12.01
2022-12-28T21:46:20.855Z,11.89
2022-12-28T21:48:53.919Z,11.99
2022-12-28T21:51:34.993Z,11.95
2022-12-28T21:54:13.234Z,11.98
2022-12-28T21:56:49.877Z,11.96
2022-12-28T21:59:24.941Z,11.90
2022-12-28T22:02:15.675Z,12.04
2022-12-28T22:05:17.833Z,12.15
2022-12-28T22:08:11.098Z,12.08
2022-12-28T22:11:03.011Z,12.02
2022-12-28T22:13:36.005Z,12.06
2022-12-28T22:16:09.128Z,12.09
2022-12-28T22:19:01.683Z,12.15
2022-12-28T22:21:36.134Z,12.18
2022-12-28T22:24:09.167Z,12.09
2022-12-28T22:26:43.494Z,12.08
2022-12-28T22:29:16.624Z,12.16
2022-12-28T22:31:49.860Z,12.28
2022-12-28T22:34:22.683Z,12.25
2022-12-28T22:36:55.612Z,12.27
2022-12-28T22:39:28.428Z,12.32
2022-12-28T22:42:02.986Z,12.23
2022-12-28T22:44:36.004Z,12.23
2022-12-28T22:47:09.615Z,12.31
2022-12-28T22:49:42.321Z,12.33
2022-12-28T22:52:15.376Z,12.26
2022-12-28T22:54:48.551Z,12.17
2022-12-28T22:57:22.814Z,12.23
2022-12-28T22:59:55.626Z,12.23
2022-12-28T23:02:30.354Z,12.18
2022-12-28T23:05:03.447Z,12.36
2022-12-28T23:07:38.462Z,12.29
2022-12-28T23:10:11.783Z,12.27
2022-12-28T23:12:45.707Z,12.39
2022-12-28T23:15:19.657Z,12.24
2022-12-28T23:18:13.302Z,12.30
2022-12-28T23:21:04.072Z,12.30
2022-12-28T23:23:54.500Z,12.16
2022-12-28T23:26:50.359Z,12.22
2022-12-28T23:29:30.476Z,12.20
2022-12-28T23:32:03.840Z,12.30
2022-12-28T23:34:36.911Z,12.25
2022-12-28T23:37:09.869Z,12.29
2022-12-28T23:39:42.892Z,12.23
2022-12-28T23:42:15.732Z,12.34
2022-12-28T23:44:49.851Z,12.26
2022-12-28T23:47:22.709Z,12.32
2022-12-28T23:49:55.561Z,12.24
2022-12-28T23:52:29.523Z,12.36
2022-12-28T23:55:02.632Z,12.43
2022-12-28T23:57:35.578Z,12.34
